Time;durP1;ratioP1;P1;durP2;ratioP2;P2;SDS_P1;SDS_P2;PMS_P1;PMS_P2;Temp;Humidity;BMP_temperature;BMP_pressure;BME280_temperature;BME280_humidity;BME280_pressure;Samples;Min_cycle;Max_cycle;Signal;HPM_P1;HPM_P2
2022/03/20 00:00:33;;;;;;;13.80;7.18;;;4.70;99.90;;;;;;4958867;28;20061;-70
2022/03/20 00:03:04;;;;;;;11.63;7.25;;;4.60;99.90;;;;;;4975917;28;20050;-69
2022/03/20 00:05:29;;;;;;;10.63;7.22;;;4.60;99.90;;;;;;4976851;28;20380;-69
2022/03/20 00:07:55;;;;;;;11.55;7.43;;;4.60;99.90;;;;;;4995526;28;20054;-71
2022/03/20 00:10:20;;;;;;;13.15;7.28;;;4.60;99.90;;;;;;4995306;28;20057;-71
2022/03/20 00:12:46;;;;;;;12.43;7.45;;;4.50;99.90;;;;;;4998758;28;20073;-71
2022/03/20 00:15:12;;;;;;;12.68;7.15;;;4.50;99.90;;;;;;4982607;28;20129;-71
2022/03/20 00:17:37;;;;;;;13.57;8.38;;;4.50;99.90;;;;;;4999544;28;20375;-71
2022/03/20 00:20:05;;;;;;;12.63;7.97;;;4.40;99.90;;;;;;4999124;28;20046;-70
2022/03/20 00:22:31;;;;;;;14.48;8.20;;;4.40;99.90;;;;;;4999266;28;20134;-70
2022/03/20 00:24:57;;;;;;;14.57;7.15;;;4.40;99.90;;;;;;4982227;28;20141;-70
2022/03/20 00:27:23;;;;;;;14.70;7.78;;;4.40;99.90;;;;;;4999066;28;20124;-72
2022/03/20 00:29:50;;;;;;;12.48;8.02;;;4.30;99.90;;;;;;5018374;28;20453;-71
2022/03/20 00:32:16;;;;;;;15.65;7.43;;;4.30;99.90;;;;;;5001716;28;20507;-72
2022/03/20 00:34:42;;;;;;;15.98;8.27;;;4.20;99.90;;;;;;5001855;28;20081;-70
2022/03/20 00:37:08;;;;;;;12.95;7.90;;;4.20;99.90;;;;;;5018086;28;20053;-70
2022/03/20 00:39:34;;;;;;;15.60;8.00;;;4.20;99.90;;;;;;5018685;28;20100;-71
2022/03/20 00:42:00;;;;;;;13.50;7.53;;;4.10;99.90;;;;;;5018471;28;20042;-71
2022/03/20 00:44:25;;;;;;;13.05;7.78;;;4.20;99.90;;;;;;5018182;28;20459;-71
2022/03/20 00:46:51;;;;;;;13.32;7.43;;;4.10;99.90;;;;;;5011632;28;20046;-70
2022/03/20 00:49:16;;;;;;;10.30;6.95;;;4.20;99.90;;;;;;4998613;28;20050;-71
2022/03/20 00:51:42;;;;;;;12.90;7.28;;;4.20;99.90;;;;;;4998753;28;20055;-72
2022/03/20 00:54:09;;;;;;;18.10;7.32;;;4.20;99.90;;;;;;4998571;28;20370;-70
2022/03/20 00:56:34;;;;;;;14.40;7.38;;;4.20;99.90;;;;;;4998422;28;20050;-70
2022/03/20 00:59:00;;;;;;;14.13;7.70;;;4.20;99.90;;;;;;4998011;28;20093;-72
2022/03/20 01:01:28;;;;;;;11.80;7.13;;;4.20;99.90;;;;;;4998369;28;20105;-70
2022/03/20 01:03:54;;;;;;;14.07;7.72;;;4.20;99.90;;;;;;4981216;28;20073;-72
2022/03/20 01:06:21;;;;;;;13.43;8.15;;;4.10;99.90;;;;;;4981341;28;20128;-70
2022/03/20 01:08:46;;;;;;;16.10;8.13;;;4.10;99.90;;;;;;4981125;28;20042;-71
2022/03/20 01:11:12;;;;;;;11.63;7.05;;;4.10;99.90;;;;;;4996973;28;20050;-70
2022/03/20 01:13:38;;;;;;;15.82;7.78;;;4.10;99.90;;;;;;4998101;28;20084;-71
2022/03/20 01:16:06;;;;;;;13.07;8.55;;;4.10;99.90;;;;;;5000515;28;20089;-69
2022/03/20 01:18:31;;;;;;;13.38;8.13;;;4.10;99.90;;;;;;5010619;28;20046;-71
2022/03/20 01:20:57;;;;;;;13.82;8.07;;;4.10;99.90;;;;;;4997918;28;20046;-71
2022/03/20 01:23:22;;;;;;;14.85;8.27;;;4.10;99.90;;;;;;4997994;28;20047;-71
2022/03/20 01:25:49;;;;;;;17.25;7.95;;;4.00;99.90;;;;;;4980647;28;20124;-70
2022/03/20 01:28:16;;;;;;;15.05;7.82;;;4.20;99.90;;;;;;4997504;28;20109;-70
2022/03/20 01:30:42;;;;;;;13.23;8.35;;;4.00;99.90;;;;;;4980453;28;20046;-71
2022/03/20 01:33:08;;;;;;;14.60;7.60;;;4.00;99.90;;;;;;4998067;28;20050;-70
2022/03/20 01:35:35;;;;;;;17.95;9.23;;;3.90;99.90;;;;;;4980874;28;20505;-69
2022/03/20 01:38:01;;;;;;;21.40;8.98;;;3.90;99.90;;;;;;4997868;28;20348;-69
2022/03/20 01:40:27;;;;;;;14.88;8.38;;;3.80;99.90;;;;;;4980278;28;20046;-71
2022/03/20 01:42:53;;;;;;;15.35;9.05;;;3.80;99.90;;;;;;4997457;28;20162;-71
2022/03/20 01:45:21;;;;;;;16.67;8.27;;;3.80;99.90;;;;;;4997423;28;20058;-69
2022/03/20 01:47:49;;;;;;;12.27;8.23;;;3.80;99.90;;;;;;5013285;28;20513;-71
2022/03/20 01:50:16;;;;;;;14.27;8.07;;;3.70;99.90;;;;;;5017519;28;20486;-70
2022/03/20 01:52:45;;;;;;;13.10;8.57;;;3.70;99.90;;;;;;5017313;28;20068;-72
2022/03/20 01:55:11;;;;;;;16.33;9.05;;;3.70;99.90;;;;;;5016933;28;20056;-71
2022/03/20 01:57:39;;;;;;;16.70;8.65;;;3.60;99.90;;;;;;4999838;28;20042;-70
2022/03/20 02:00:06;;;;;;;17.67;8.95;;;3.60;99.90;;;;;;5016649;28;20451;-70
2022/03/20 02:02:32;;;;;;;16.05;9.15;;;3.50;99.90;;;;;;5000010;28;20395;-70
2022/03/20 02:04:57;;;;;;;19.15;9.60;;;3.50;99.90;;;;;;4982375;28;20061;-70
2022/03/20 02:07:24;;;;;;;18.15;9.25;;;3.50;99.90;;;;;;5016901;28;20366;-72
2022/03/20 02:09:50;;;;;;;16.58;8.73;;;3.50;99.90;;;;;;5000315;28;20136;-70
2022/03/20 02:12:16;;;;;;;17.40;9.48;;;3.50;99.90;;;;;;5017063;28;20137;-70
2022/03/20 02:14:42;;;;;;;14.30;8.73;;;3.50;99.90;;;;;;5016578;28;20046;-70
2022/03/20 02:17:10;;;;;;;18.05;10.07;;;3.50;99.90;;;;;;5003013;28;20046;-71
2022/03/20 02:19:38;;;;;;;20.95;9.68;;;3.50;99.90;;;;;;4979980;28;20070;-71
2022/03/20 02:22:04;;;;;;;19.65;10.25;;;3.40;99.90;;;;;;4997021;28;20054;-71
2022/03/20 02:24:41;;;;;;;19.30;10.50;;;3.40;99.90;;;;;;4997192;28;20053;-70
2022/03/20 02:27:19;;;;;;;17.02;10.07;;;3.40;99.90;;;;;;4997083;28;20057;-70
2022/03/20 02:29:50;;;;;;;16.35;10.32;;;3.40;99.90;;;;;;4996920;28;20112;-70
2022/03/20 02:32:18;;;;;;;16.08;10.38;;;3.40;99.90;;;;;;4996701;28;20362;-71
2022/03/20 02:34:47;;;;;;;15.25;9.25;;;3.30;99.90;;;;;;4995884;28;20053;-70
2022/03/20 02:37:13;;;;;;;18.77;10.80;;;3.40;99.90;;;;;;4980247;28;20424;-70
2022/03/20 02:39:39;;;;;;;17.08;11.45;;;3.40;99.90;;;;;;4996621;28;20133;-71
2022/03/20 02:42:07;;;;;;;16.05;9.27;;;3.40;99.90;;;;;;4996509;28;20043;-70
2022/03/20 02:44:53;;;;;;;18.33;11.13;;;3.30;99.90;;;;;;4996728;28;20047;-69
2022/03/20 02:47:23;;;;;;;18.38;11.73;;;3.30;99.90;;;;;;5010514;28;20374;-70
2022/03/20 02:49:54;;;;;;;16.55;10.10;;;3.30;99.90;;;;;;5016253;28;20060;-70
2022/03/20 02:52:23;;;;;;;21.13;11.80;;;3.20;99.90;;;;;;5015797;28;20046;-71
2022/03/20 02:54:48;;;;;;;16.55;11.48;;;3.30;99.90;;;;;;4998729;28;20534;-70
2022/03/20 02:57:14;;;;;;;21.25;11.48;;;3.60;99.90;;;;;;5016008;28;20129;-71
2022/03/20 02:59:39;;;;;;;16.70;11.45;;;3.20;99.90;;;;;;5015617;28;20121;-70
2022/03/20 03:02:05;;;;;;;26.63;11.90;;;3.20;99.90;;;;;;5015901;28;20050;-70
2022/03/20 03:04:31;;;;;;;22.90;12.70;;;3.10;99.90;;;;;;4982185;28;20056;-70
2022/03/20 03:07:01;;;;;;;17.98;11.13;;;3.20;99.90;;;;;;5015545;28;20057;-71
2022/03/20 03:12:10;;;;;;;;;;;3.30;99.90;;;;;;5016090;28;20447;-70
2022/03/20 03:17:27;;;;;;;;;;;3.30;99.90;;;;;;5016075;28;20042;-69
2022/03/20 03:19:54;;;;;;;22.08;12.15;;;3.30;99.90;;;;;;5015594;28;19929;-70
2022/03/20 03:22:20;;;;;;;25.00;12.68;;;3.20;99.90;;;;;;5015124;28;20054;-71
2022/03/20 03:24:45;;;;;;;21.70;12.68;;;3.20;99.90;;;;;;4981781;28;20083;-69
2022/03/20 03:27:11;;;;;;;22.45;12.00;;;3.10;99.90;;;;;;4996114;28;20117;-72
2022/03/20 03:29:37;;;;;;;22.98;11.00;;;3.10;99.90;;;;;;4978372;28;20069;-71
2022/03/20 03:32:04;;;;;;;23.30;12.68;;;3.10;99.90;;;;;;4995761;28;20155;-70
2022/03/20 03:37:18;;;;;;;22.27;13.52;;;3.00;99.90;;;;;;4995624;28;20106;-70
2022/03/20 03:39:44;;;;;;;20.52;13.63;;;3.00;99.90;;;;;;4996051;28;20399;-71
2022/03/20 03:42:10;;;;;;;19.15;13.00;;;3.00;99.90;;;;;;4995790;28;20100;-70
2022/03/20 03:44:36;;;;;;;22.27;13.95;;;3.00;99.90;;;;;;4995538;28;20125;-71
2022/03/20 03:47:02;;;;;;;22.95;13.35;;;2.90;99.90;;;;;;4978562;28;20050;-70
2022/03/20 03:49:28;;;;;;;21.25;12.57;;;2.90;99.90;;;;;;4995884;28;20053;-70
2022/03/20 03:51:54;;;;;;;19.98;13.30;;;2.80;99.90;;;;;;4978382;28;20129;-69
2022/03/20 03:54:19;;;;;;;23.10;13.65;;;2.80;99.90;;;;;;5003697;28;20042;-70
2022/03/20 03:56:45;;;;;;;21.02;13.73;;;2.80;99.90;;;;;;5014602;28;20046;-70
2022/03/20 03:59:11;;;;;;;20.25;13.88;;;2.80;99.90;;;;;;5015399;28;20379;-70
2022/03/20 04:01:36;;;;;;;22.70;13.43;;;2.80;99.90;;;;;;5015172;28;20085;-70
2022/03/20 04:04:02;;;;;;;24.48;14.18;;;2.80;99.90;;;;;;4997727;28;20455;-72
2022/03/20 04:06:28;;;;;;;25.02;14.10;;;2.80;99.90;;;;;;5014753;28;20058;-71
2022/03/20 04:08:55;;;;;;;23.38;12.93;;;2.80;99.90;;;;;;5014969;28;20089;-73
2022/03/20 04:11:20;;;;;;;26.77;14.77;;;2.70;99.90;;;;;;5014679;28;20446;-70
2022/03/20 04:13:46;;;;;;;25.65;15.07;;;2.70;99.90;;;;;;4997996;28;20050;-71
2022/03/20 04:16:12;;;;;;;25.58;15.10;;;2.70;99.90;;;;;;4998063;28;20454;-69
2022/03/20 04:18:37;;;;;;;21.05;14.57;;;2.60;99.90;;;;;;5014811;28;20445;-72
2022/03/20 04:21:04;;;;;;;22.50;14.63;;;2.60;99.90;;;;;;5014617;28;20053;-71
2022/03/20 04:23:49;;;;;;;24.30;14.07;;;2.60;99.90;;;;;;5009354;28;20038;-71
2022/03/20 04:26:22;;;;;;;24.48;14.90;;;2.60;99.90;;;;;;4995046;28;20517;-71
2022/03/20 04:28:52;;;;;;;21.25;14.43;;;2.60;99.90;;;;;;4995060;28;20113;-69
2022/03/20 04:31:20;;;;;;;25.67;14.98;;;2.50;99.90;;;;;;4995202;28;20065;-70
2022/03/20 04:33:50;;;;;;;21.95;13.48;;;2.50;99.90;;;;;;4962804;28;20340;-71
2022/03/20 04:36:17;;;;;;;23.58;14.73;;;2.50;99.90;;;;;;4995495;28;20104;-71
2022/03/20 04:38:44;;;;;;;23.17;15.05;;;2.40;99.90;;;;;;4995360;28;20050;-70
2022/03/20 04:41:09;;;;;;;26.80;14.27;;;2.40;99.90;;;;;;4978219;28;20054;-69
2022/03/20 04:43:35;;;;;;;25.48;15.75;;;2.50;99.90;;;;;;4978131;28;20046;-70
2022/03/20 04:46:01;;;;;;;27.13;15.27;;;2.40;99.90;;;;;;4994657;28;20034;-71
2022/03/20 04:59:24;;;;;;;26.67;16.73;;;2.30;99.90;;;;;;4998866;28;20047;-69
2022/03/20 05:01:50;;;;;;;27.48;17.08;;;2.30;99.90;;;;;;4998594;28;20046;-70
2022/03/20 05:04:16;;;;;;;27.60;15.43;;;2.30;99.90;;;;;;4997272;28;20052;-73
2022/03/20 05:06:45;;;;;;;28.98;16.98;;;2.30;99.90;;;;;;4998424;28;20062;-70
2022/03/20 05:15:00;;;;;;;24.02;16.52;;;2.20;99.90;;;;;;4938091;29;20163;-69
2022/03/20 05:17:25;;;;;;;22.90;14.30;;;2.10;99.90;;;;;;4953292;28;20050;-71
2022/03/20 05:19:51;;;;;;;26.73;16.42;;;2.10;99.90;;;;;;4997899;28;20100;-71
2022/03/20 05:22:16;;;;;;;26.58;16.63;;;2.10;99.90;;;;;;4998000;28;20061;-72
2022/03/20 05:24:43;;;;;;;23.02;16.60;;;2.10;99.90;;;;;;5014503;28;20050;-72
2022/03/20 05:27:08;;;;;;;26.33;17.23;;;2.10;99.90;;;;;;5017921;28;20061;-70
2022/03/20 05:29:35;;;;;;;26.08;16.25;;;2.10;99.90;;;;;;5017894;28;20038;-70
2022/03/20 05:32:02;;;;;;;24.08;16.17;;;2.00;99.90;;;;;;5017360;28;20042;-70
2022/03/20 05:34:28;;;;;;;26.38;17.40;;;2.00;99.90;;;;;;5017351;28;20500;-71
2022/03/20 05:36:56;;;;;;;28.17;17.50;;;2.00;99.90;;;;;;5000738;28;20203;-70
2022/03/20 05:39:22;;;;;;;29.52;17.45;;;2.00;99.90;;;;;;5000387;28;20125;-70
2022/03/20 05:41:48;;;;;;;26.98;17.75;;;2.00;99.90;;;;;;5017326;28;20459;-70
2022/03/20 05:44:21;;;;;;;25.55;16.23;;;2.00;99.90;;;;;;5017505;28;20046;-69
2022/03/20 05:46:51;;;;;;;27.13;18.10;;;2.30;99.90;;;;;;5000249;28;20093;-70
2022/03/20 05:49:18;;;;;;;26.98;17.63;;;2.00;99.90;;;;;;5017388;28;20434;-69
2022/03/20 05:51:46;;;;;;;28.38;18.27;;;2.00;99.90;;;;;;5017461;28;20046;-71
2022/03/20 05:54:12;;;;;;;27.95;17.88;;;2.00;99.90;;;;;;4987456;28;20463;-71
2022/03/20 05:59:21;;;;;;;25.05;17.25;;;2.00;99.90;;;;;;4997573;28;20054;-71
2022/03/20 06:01:48;;;;;;;27.65;18.17;;;2.00;99.90;;;;;;4996957;28;20042;-70
2022/03/20 06:04:13;;;;;;;28.20;17.88;;;2.10;99.90;;;;;;4980212;28;20054;-70
2022/03/20 06:06:40;;;;;;;25.75;18.63;;;2.10;99.90;;;;;;4997182;28;20477;-69
2022/03/20 06:09:06;;;;;;;33.53;19.08;;;2.10;99.90;;;;;;4996045;28;20426;-69
2022/03/20 06:11:35;;;;;;;29.27;17.92;;;2.20;99.90;;;;;;4996997;28;20038;-71
2022/03/20 06:14:02;;;;;;;28.05;18.45;;;2.20;99.90;;;;;;4983131;28;20426;-68
2022/03/20 06:16:30;;;;;;;27.83;18.65;;;2.20;99.90;;;;;;4998691;28;20048;-70
2022/03/20 06:18:56;;;;;;;30.97;19.93;;;2.20;99.90;;;;;;4979431;28;20108;-70
2022/03/20 06:21:25;;;;;;;31.45;18.83;;;2.20;99.90;;;;;;4996997;28;20121;-70
2022/03/20 06:23:55;;;;;;;31.45;19.88;;;2.30;99.90;;;;;;4992680;28;20054;-71
2022/03/20 06:26:24;;;;;;;29.33;18.75;;;2.30;99.90;;;;;;4993589;28;20485;-70
2022/03/20 06:28:50;;;;;;;29.63;18.13;;;2.30;99.90;;;;;;4984798;28;20355;-71
2022/03/20 06:31:18;;;;;;;29.80;17.85;;;2.40;99.90;;;;;;5002541;28;20411;-70
2022/03/20 06:33:44;;;;;;;29.27;18.27;;;2.40;99.90;;;;;;4997099;28;20489;-70
2022/03/20 06:36:10;;;;;;;29.73;19.25;;;3.00;99.90;;;;;;5016060;28;20097;-71
2022/03/20 06:38:36;;;;;;;28.90;18.75;;;2.50;99.90;;;;;;4998926;28;20057;-70
2022/03/20 06:41:03;;;;;;;29.23;19.95;;;2.50;99.90;;;;;;5016362;28;20045;-70
2022/03/20 06:43:29;;;;;;;26.95;18.92;;;2.60;99.90;;;;;;5016072;28;20147;-72
2022/03/20 06:45:56;;;;;;;27.83;18.02;;;2.60;99.90;;;;;;5015974;28;20069;-70
2022/03/20 06:48:22;;;;;;;30.58;19.45;;;2.70;99.90;;;;;;5016068;28;20041;-73
2022/03/20 06:50:47;;;;;;;28.23;19.60;;;2.70;99.90;;;;;;5010966;28;20390;-71
2022/03/20 06:53:13;;;;;;;31.17;18.42;;;2.80;99.90;;;;;;4979092;28;20046;-71
2022/03/20 06:55:39;;;;;;;28.65;18.58;;;2.90;99.90;;;;;;4996082;28;20444;-71
2022/03/20 06:58:05;;;;;;;27.67;17.20;;;2.90;99.90;;;;;;4996131;28;20046;-71
2022/03/20 07:00:32;;;;;;;30.33;18.17;;;3.00;99.90;;;;;;4996128;28;20351;-71
2022/03/20 07:03:01;;;;;;;25.55;16.83;;;3.00;99.90;;;;;;4996343;28;20058;-71
2022/03/20 07:05:27;;;;;;;28.20;19.30;;;3.10;99.90;;;;;;4995831;28;20046;-72
2022/03/20 07:07:53;;;;;;;32.85;19.13;;;3.20;99.90;;;;;;4995798;28;20042;-72
2022/03/20 07:10:24;;;;;;;25.50;18.02;;;3.20;99.90;;;;;;4996223;28;20446;-71
2022/03/20 07:12:50;;;;;;;28.35;18.65;;;3.30;99.90;;;;;;4996118;28;20046;-71
2022/03/20 07:15:18;;;;;;;27.58;18.23;;;3.30;99.90;;;;;;4995891;28;20042;-71
2022/03/20 07:17:47;;;;;;;29.17;18.48;;;3.30;99.90;;;;;;4978754;28;20090;-71
2022/03/20 07:20:13;;;;;;;29.88;18.60;;;3.40;99.90;;;;;;4978128;28;20050;-71
2022/03/20 07:22:40;;;;;;;26.52;15.68;;;3.50;99.90;;;;;;5003455;28;20067;-71
2022/03/20 07:30:34;;;;;;;29.17;18.75;;;3.70;99.90;;;;;;4978198;28;20058;-75
2022/03/20 07:33:00;;;;;;;22.73;14.32;;;3.70;99.90;;;;;;5005783;28;20113;-73
2022/03/20 07:35:25;;;;;;;31.65;18.38;;;3.70;99.90;;;;;;4995524;28;20459;-74
2022/03/20 07:37:51;;;;;;;27.08;18.75;;;3.80;99.90;;;;;;4986777;28;20470;-72
2022/03/20 07:40:17;;;;;;;30.85;18.27;;;3.80;99.90;;;;;;5011390;28;20104;-72
2022/03/20 07:42:43;;;;;;;26.63;17.90;;;3.90;99.90;;;;;;4994283;28;20128;-73
2022/03/20 07:45:09;;;;;;;29.92;18.88;;;4.90;99.90;;;;;;4995185;28;20042;-73
2022/03/20 07:47:35;;;;;;;27.27;17.35;;;3.90;99.90;;;;;;4995033;28;20046;-73
2022/03/20 07:50:02;;;;;;;29.20;19.02;;;4.00;99.90;;;;;;4988199;28;20042;-72
2022/03/20 07:52:29;;;;;;;29.30;19.88;;;4.00;99.90;;;;;;4994553;28;20478;-74
2022/03/20 07:54:54;;;;;;;29.13;17.15;;;4.10;99.90;;;;;;4985466;28;20053;-73
2022/03/20 07:57:20;;;;;;;24.75;18.38;;;4.20;99.90;;;;;;4985928;28;20050;-73
2022/03/20 07:59:46;;;;;;;27.50;17.83;;;4.30;99.90;;;;;;5004094;28;20042;-73
2022/03/20 08:02:12;;;;;;;29.02;17.17;;;4.30;99.90;;;;;;5010969;28;20052;-73
2022/03/20 08:04:40;;;;;;;29.45;18.25;;;4.40;99.90;;;;;;5014040;28;20058;-74
2022/03/20 08:07:06;;;;;;;29.63;17.73;;;4.50;99.90;;;;;;4997452;28;20054;-73
2022/03/20 08:09:32;;;;;;;25.52;18.67;;;4.50;99.90;;;;;;4981675;28;20076;-73
2022/03/20 08:11:58;;;;;;;27.85;18.40;;;4.50;99.90;;;;;;4988646;28;20050;-73
2022/03/20 08:14:23;;;;;;;25.23;17.58;;;4.60;99.90;;;;;;4977966;28;20447;-74
2022/03/20 08:16:50;;;;;;;25.95;18.00;;;4.60;99.90;;;;;;4987749;28;20073;-73
2022/03/20 08:19:17;;;;;;;29.88;19.15;;;4.70;99.90;;;;;;5002325;28;20048;-72
2022/03/20 08:21:43;;;;;;;25.92;17.70;;;4.70;99.90;;;;;;4987534;28;20065;-73
2022/03/20 08:24:09;;;;;;;28.40;17.80;;;4.80;99.90;;;;;;4975450;28;20099;-74
2022/03/20 08:26:35;;;;;;;26.20;15.88;;;4.90;99.90;;;;;;4997347;28;20089;-73
2022/03/20 08:29:01;;;;;;;29.10;19.08;;;5.00;99.90;;;;;;5014942;28;20041;-72
2022/03/20 08:31:28;;;;;;;28.63;17.80;;;5.10;99.90;;;;;;4969596;28;20064;-73
2022/03/20 08:33:57;;;;;;;30.65;19.42;;;5.10;99.90;;;;;;4998378;28;20050;-74
2022/03/20 08:36:24;;;;;;;25.98;17.83;;;5.20;99.90;;;;;;4998761;28;20050;-72
2022/03/20 08:38:49;;;;;;;26.13;18.15;;;5.30;99.90;;;;;;4981899;28;20058;-73
2022/03/20 08:41:15;;;;;;;25.65;16.13;;;5.40;99.90;;;;;;4965148;28;20136;-73
2022/03/20 08:43:40;;;;;;;31.65;19.35;;;5.50;99.90;;;;;;4981812;28;20498;-74
2022/03/20 08:46:06;;;;;;;32.17;20.02;;;5.60;99.90;;;;;;4998778;28;20489;-72
2022/03/20 08:48:32;;;;;;;27.92;18.65;;;5.60;99.90;;;;;;4981069;28;20080;-73
2022/03/20 08:50:57;;;;;;;27.73;18.30;;;5.60;99.90;;;;;;4981347;28;20085;-73
2022/03/20 08:53:25;;;;;;;29.05;20.08;;;5.80;99.90;;;;;;4998444;28;20356;-73
2022/03/20 08:55:51;;;;;;;31.70;19.98;;;5.80;99.90;;;;;;4998341;28;20050;-73
2022/03/20 08:58:17;;;;;;;31.25;20.55;;;5.90;99.90;;;;;;4980931;28;20121;-72
2022/03/20 09:00:43;;;;;;;28.95;18.88;;;6.00;99.90;;;;;;5001995;28;20053;-72
2022/03/20 09:03:11;;;;;;;28.33;18.02;;;6.10;99.90;;;;;;4998382;28;20042;-73
2022/03/20 09:05:40;;;;;;;31.08;21.00;;;6.20;99.90;;;;;;5018009;28;20058;-73
2022/03/20 09:08:06;;;;;;;29.48;18.98;;;6.30;99.90;;;;;;5018024;28;20379;-72
2022/03/20 09:10:34;;;;;;;29.92;21.27;;;6.30;99.90;;;;;;5000519;28;20041;-74
2022/03/20 09:13:00;;;;;;;30.83;18.90;;;6.30;99.90;;;;;;5018016;28;20049;-73
2022/03/20 09:15:28;;;;;;;31.88;19.13;;;6.30;99.90;;;;;;5016425;28;20455;-73
2022/03/20 09:20:39;;;;;;;34.28;19.80;;;6.40;99.90;;;;;;5017802;28;20136;-73
2022/03/20 09:23:06;;;;;;;30.95;18.83;;;6.50;99.90;;;;;;5014847;28;20045;-73
2022/03/20 09:25:32;;;;;;;30.80;19.45;;;6.60;99.90;;;;;;5000002;28;20053;-73
2022/03/20 09:27:58;;;;;;;27.85;17.17;;;6.60;99.90;;;;;;5000102;28;20042;-72
2022/03/20 09:30:24;;;;;;;29.00;19.55;;;6.70;99.90;;;;;;5012768;28;20073;-74
2022/03/20 09:32:49;;;;;;;25.13;17.95;;;6.80;99.90;;;;;;4998022;28;20042;-74
2022/03/20 09:35:16;;;;;;;27.83;18.80;;;6.80;99.90;;;;;;4997974;28;20046;-75
2022/03/20 09:37:42;;;;;;;28.08;19.90;;;6.90;99.90;;;;;;4997697;28;20555;-73
2022/03/20 09:40:12;;;;;;;28.05;19.70;;;7.00;99.90;;;;;;4997703;28;20050;-74
2022/03/20 09:42:38;;;;;;;29.73;19.98;;;7.10;99.90;;;;;;4980364;28;20047;-72
2022/03/20 09:45:05;;;;;;;30.65;19.13;;;7.20;99.90;;;;;;4997539;28;20129;-73
2022/03/20 09:47:36;;;;;;;31.92;19.88;;;7.30;99.90;;;;;;4994311;28;20052;-73
2022/03/20 09:50:02;;;;;;;28.63;19.23;;;7.40;99.90;;;;;;4997378;28;20057;-74
2022/03/20 09:52:28;;;;;;;26.70;19.45;;;7.40;99.90;;;;;;4997489;28;20129;-74
2022/03/20 09:54:53;;;;;;;31.80;21.10;;;7.60;99.90;;;;;;4980123;28;20495;-74
2022/03/20 09:57:19;;;;;;;34.08;19.00;;;7.60;99.90;;;;;;4997334;28;20121;-73
2022/03/20 09:59:44;;;;;;;27.27;18.50;;;7.70;99.90;;;;;;4997471;28;20125;-74
2022/03/20 10:02:11;;;;;;;30.30;19.08;;;8.00;99.60;;;;;;5001124;28;20129;-73
2022/03/20 10:05:06;;;;;;;29.20;20.38;;;7.70;99.60;;;;;;4980008;28;20056;-73
2022/03/20 10:07:35;;;;;;;30.77;19.73;;;7.60;99.80;;;;;;4996788;28;20063;-74
2022/03/20 10:10:22;;;;;;;31.73;21.40;;;7.80;99.90;;;;;;4996957;28;20057;-72
2022/03/20 10:12:55;;;;;;;33.50;22.08;;;7.80;99.70;;;;;;4996070;28;20038;-73
2022/03/20 10:15:31;;;;;;;33.33;21.08;;;7.90;99.30;;;;;;4997139;28;20042;-73
2022/03/20 10:18:20;;;;;;;32.15;18.30;;;8.00;99.40;;;;;;4996566;28;20467;-73
2022/03/20 10:20:49;;;;;;;31.33;20.30;;;8.20;99.50;;;;;;4979393;28;20122;-73
2022/03/20 10:23:28;;;;;;;29.02;20.38;;;8.30;99.00;;;;;;4997061;28;20034;-73
2022/03/20 10:25:54;;;;;;;29.17;20.98;;;8.40;99.40;;;;;;4996894;28;20046;-72
2022/03/20 10:28:19;;;;;;;35.22;20.45;;;8.60;99.90;;;;;;4996602;28;20473;-73
2022/03/20 10:31:02;;;;;;;33.47;21.83;;;8.70;99.00;;;;;;4985785;28;20474;-74
2022/03/20 10:33:27;;;;;;;30.75;19.63;;;8.70;97.20;;;;;;5008902;28;20046;-73
2022/03/20 10:36:13;;;;;;;32.20;21.38;;;8.80;96.70;;;;;;4979418;28;20066;-71
2022/03/20 10:38:41;;;;;;;35.22;20.25;;;8.80;96.80;;;;;;4981759;28;20062;-73
2022/03/20 10:41:20;;;;;;;31.42;19.63;;;8.80;96.60;;;;;;4982190;28;20061;-73
2022/03/20 10:43:47;;;;;;;34.53;22.00;;;9.20;95.70;;;;;;4978307;28;20065;-74
2022/03/20 10:46:39;;;;;;;34.20;21.65;;;9.00;97.00;;;;;;4996550;28;20121;-73
2022/03/20 10:49:06;;;;;;;32.80;21.85;;;9.10;96.10;;;;;;4994220;28;20360;-72
2022/03/20 10:51:39;;;;;;;32.97;22.35;;;9.40;95.40;;;;;;4995510;28;20419;-71
2022/03/20 10:54:15;;;;;;;30.85;21.85;;;9.20;95.00;;;;;;4995557;28;20046;-75
2022/03/20 10:56:56;;;;;;;32.08;20.83;;;9.30;95.80;;;;;;4978334;28;20125;-74
2022/03/20 10:59:23;;;;;;;32.70;23.23;;;9.50;94.70;;;;;;4995748;28;20050;-74
2022/03/20 11:01:49;;;;;;;32.30;21.52;;;9.50;94.10;;;;;;4989892;28;20060;-72
2022/03/20 11:04:16;;;;;;;29.77;20.92;;;9.50;92.70;;;;;;5015456;28;20431;-74
2022/03/20 11:06:46;;;;;;;37.78;22.75;;;9.50;93.20;;;;;;4998076;28;20058;-72
2022/03/20 11:09:12;;;;;;;31.60;21.63;;;9.50;93.60;;;;;;5015693;28;20057;-75
2022/03/20 11:11:41;;;;;;;35.88;22.27;;;9.60;92.90;;;;;;5015657;28;20410;-73
2022/03/20 11:14:09;;;;;;;30.90;22.52;;;9.70;94.30;;;;;;5015451;28;20089;-73
2022/03/20 11:16:37;;;;;;;33.28;21.90;;;9.80;92.50;;;;;;5015470;28;20096;-72
2022/03/20 11:19:05;;;;;;;29.40;20.75;;;9.80;93.60;;;;;;5006670;28;20096;-74
2022/03/20 11:21:35;;;;;;;32.80;21.83;;;9.80;91.00;;;;;;4979505;28;20038;-69
2022/03/20 11:24:02;;;;;;;27.65;20.45;;;9.80;90.40;;;;;;4976269;28;20046;-72
2022/03/20 11:26:29;;;;;;;30.23;20.17;;;9.80;90.60;;;;;;4961962;28;20423;-72
2022/03/20 11:28:59;;;;;;;34.30;22.17;;;10.00;93.00;;;;;;4978658;28;20478;-74
2022/03/20 11:31:25;;;;;;;37.33;22.90;;;10.00;90.20;;;;;;4992496;28;20038;-71
2022/03/20 11:33:52;;;;;;;35.67;22.55;;;10.20;91.10;;;;;;4995016;28;20034;-72
2022/03/20 11:36:18;;;;;;;33.05;22.13;;;10.30;90.90;;;;;;4995222;28;20069;-71
2022/03/20 11:39:03;;;;;;;32.53;22.70;;;10.40;90.90;;;;;;4994968;28;20046;-72
2022/03/20 11:41:29;;;;;;;30.60;21.05;;;10.40;90.00;;;;;;4979968;28;20050;-72
2022/03/20 11:44:21;;;;;;;30.63;20.90;;;10.40;90.50;;;;;;4978490;28;20061;-72
2022/03/20 11:47:16;;;;;;;34.38;21.80;;;10.50;89.80;;;;;;4995298;28;20509;-74
2022/03/20 11:49:42;;;;;;;34.35;22.92;;;10.60;88.40;;;;;;4988177;28;20513;-72
2022/03/20 11:52:10;;;;;;;31.83;22.23;;;10.60;88.50;;;;;;4997177;28;20129;-73
2022/03/20 11:54:42;;;;;;;34.22;23.30;;;10.60;90.30;;;;;;5015309;28;20046;-72
2022/03/20 11:57:26;;;;;;;29.42;21.52;;;10.70;85.60;;;;;;4997876;28;20064;-73
2022/03/20 11:59:54;;;;;;;34.22;22.02;;;10.70;84.50;;;;;;5014199;28;20374;-73
2022/03/20 12:02:43;;;;;;;34.72;22.92;;;10.50;84.70;;;;;;5014625;28;20050;-72
2022/03/20 12:05:27;;;;;;;31.65;21.00;;;10.70;86.50;;;;;;4997340;28;20064;-71
2022/03/20 12:08:17;;;;;;;34.05;23.02;;;10.80;87.60;;;;;;4999902;28;20108;-71
2022/03/20 12:11:13;;;;;;;30.38;22.13;;;10.70;84.20;;;;;;5010453;28;20116;-71
2022/03/20 12:13:54;;;;;;;32.90;21.50;;;10.90;87.80;;;;;;4968356;28;20436;-68
2022/03/20 12:16:45;;;;;;;30.98;20.45;;;11.00;84.90;;;;;;4998973;28;20121;-69
2022/03/20 12:19:19;;;;;;;31.13;20.65;;;11.20;85.50;;;;;;4981592;28;20140;-68
2022/03/20 12:21:58;;;;;;;32.08;22.25;;;11.30;82.30;;;;;;4998753;28;20077;-73
2022/03/20 12:24:36;;;;;;;30.75;21.45;;;11.30;84.20;;;;;;5001154;28;20058;-73
2022/03/20 12:27:25;;;;;;;32.58;21.83;;;11.40;82.60;;;;;;5018571;28;20042;-72
2022/03/20 12:30:03;;;;;;;31.75;21.90;;;11.50;84.60;;;;;;5018370;28;20045;-72
2022/03/20 12:32:49;;;;;;;30.45;21.35;;;11.50;81.70;;;;;;5018725;28;20042;-73
2022/03/20 12:35:26;;;;;;;31.75;21.08;;;11.60;82.80;;;;;;5010975;28;20168;-73
2022/03/20 12:37:55;;;;;;;32.83;22.00;;;11.70;79.60;;;;;;4985137;28;20109;-73
2022/03/20 12:40:27;;;;;;;32.78;20.33;;;11.70;79.50;;;;;;5018444;28;20124;-72
2022/03/20 12:43:14;;;;;;;33.08;21.63;;;11.80;77.20;;;;;;5018598;28;20430;-74
2022/03/20 12:45:42;;;;;;;33.42;21.48;;;11.80;78.20;;;;;;5018498;28;20426;-72
2022/03/20 12:48:16;;;;;;;30.38;22.50;;;11.90;80.80;;;;;;5017792;28;20133;-70
2022/03/20 12:50:44;;;;;;;34.72;21.67;;;12.10;77.90;;;;;;5000777;28;20054;-72
2022/03/20 12:53:16;;;;;;;32.42;21.50;;;12.20;79.10;;;;;;5008773;28;20078;-73
2022/03/20 12:55:46;;;;;;;30.15;21.02;;;12.30;82.20;;;;;;4998640;28;20110;-75
2022/03/20 12:58:14;;;;;;;33.15;21.25;;;12.40;81.60;;;;;;4993866;28;20081;-73
2022/03/20 13:00:40;;;;;;;29.90;21.05;;;12.40;76.50;;;;;;4965284;28;20065;-71
2022/03/20 13:03:07;;;;;;;31.08;21.23;;;12.40;79.50;;;;;;4998383;28;20522;-69
2022/03/20 13:05:40;;;;;;;27.38;20.98;;;12.30;77.50;;;;;;4998349;28;20081;-72
2022/03/20 13:08:07;;;;;;;34.47;22.80;;;12.30;76.20;;;;;;4996458;28;20050;-72
2022/03/20 13:10:37;;;;;;;33.88;21.65;;;12.20;76.40;;;;;;4997809;28;20049;-73
2022/03/20 13:13:04;;;;;;;29.80;20.08;;;12.20;77.70;;;;;;4996538;28;20057;-73
2022/03/20 13:15:32;;;;;;;31.30;22.05;;;12.10;75.80;;;;;;4979540;28;20057;-72
2022/03/20 13:17:59;;;;;;;30.90;21.88;;;12.10;77.30;;;;;;4995707;28;20105;-71
2022/03/20 13:20:27;;;;;;;35.03;23.10;;;12.20;78.10;;;;;;4998056;28;20042;-71